Time;durP1;ratioP1;P1;durP2;ratioP2;P2;SDS_P1;SDS_P2;PMS_P1;PMS_P2;Temp;Humidity;BMP_temperature;BMP_pressure;BME280_temperature;BME280_humidity;BME280_pressure;Samples;Min_cycle;Max_cycle;Signal;HPM_P1;HPM_P2
2023/10/30 00:01:27;;;;;;;7.05;4.05;;;;;;;10.73;100.00;94872.63;5073708;28;20064;-65
2023/10/30 00:03:53;;;;;;;6.00;4.45;;;;;;;10.59;100.00;94877.53;5086764;28;20024;-65
2023/10/30 00:06:18;;;;;;;8.10;4.03;;;;;;;10.54;100.00;94865.81;5060301;28;20573;-65
2023/10/30 00:08:43;;;;;;;6.95;4.05;;;;;;;10.50;100.00;94848.72;5078965;28;20098;-65
2023/10/30 00:11:09;;;;;;;8.38;3.80;;;;;;;10.62;100.00;94846.59;5078962;28;20370;-65
2023/10/30 00:13:35;;;;;;;9.80;4.10;;;;;;;10.53;100.00;94843.13;5081381;28;20027;-66
2023/10/30 00:16:00;;;;;;;7.88;4.15;;;;;;;10.49;100.00;94823.38;5086847;28;20024;-66
2023/10/30 00:18:26;;;;;;;6.68;4.10;;;;;;;10.48;100.00;94827.81;5079738;28;20016;-65
2023/10/30 00:20:51;;;;;;;7.47;3.35;;;;;;;10.44;100.00;94826.50;5077480;28;20028;-66
2023/10/30 00:23:16;;;;;;;6.78;5.60;;;;;;;10.42;100.00;94820.59;5081274;28;20388;-65
2023/10/30 00:25:43;;;;;;;8.18;7.38;;;;;;;10.36;100.00;94821.22;5091683;28;20024;-65
2023/10/30 00:28:08;;;;;;;6.00;4.60;;;;;;;10.37;100.00;94817.59;5087464;28;20079;-65
2023/10/30 00:30:34;;;;;;;6.78;4.20;;;;;;;10.38;100.00;94817.41;5087059;28;20103;-65
2023/10/30 00:32:59;;;;;;;6.93;4.30;;;;;;;10.43;100.00;94820.44;5080193;28;20081;-65
2023/10/30 00:35:24;;;;;;;6.25;3.92;;;;;;;10.43;100.00;94814.34;5091399;28;20020;-66
2023/10/30 00:37:50;;;;;;;5.88;3.72;;;;;;;10.37;100.00;94825.47;5087888;28;20020;-66
2023/10/30 00:40:15;;;;;;;7.63;3.78;;;;;;;10.43;100.00;94816.97;5080249;28;20028;-65
2023/10/30 00:42:41;;;;;;;5.72;3.35;;;;;;;10.55;100.00;94813.03;5079263;28;20028;-65
2023/10/30 00:45:07;;;;;;;9.63;3.90;;;;;;;10.49;100.00;94820.75;5084386;28;20028;-66
2023/10/30 00:47:34;;;;;;;7.93;3.72;;;;;;;10.44;100.00;94829.13;5082108;28;20032;-65
2023/10/30 00:50:00;;;;;;;8.05;3.55;;;;;;;10.41;100.00;94825.03;5080678;28;20020;-65
2023/10/30 00:52:26;;;;;;;12.15;3.50;;;;;;;10.37;100.00;94822.84;5079176;28;20016;-65
2023/10/30 00:54:53;;;;;;;8.77;3.22;;;;;;;10.36;100.00;94829.09;5078212;28;20052;-66
2023/10/30 00:57:19;;;;;;;6.63;3.55;;;;;;;10.37;100.00;94838.63;5082731;28;20586;-65
2023/10/30 00:59:44;;;;;;;6.45;3.67;;;;;;;10.47;100.00;94818.28;5091128;28;20119;-65
2023/10/30 01:02:09;;;;;;;7.47;3.70;;;;;;;10.40;100.00;94830.41;5079937;28;20032;-65
2023/10/30 01:04:35;;;;;;;3.95;3.30;;;;;;;10.37;100.00;94831.56;5082569;28;20081;-65
2023/10/30 01:07:02;;;;;;;5.75;3.30;;;;;;;10.41;100.00;94837.34;5084512;28;20028;-65
2023/10/30 01:09:27;;;;;;;6.13;3.28;;;;;;;10.39;100.00;94834.03;5089953;28;20111;-65
2023/10/30 01:11:53;;;;;;;4.72;3.55;;;;;;;10.41;100.00;94834.72;5083279;28;20558;-64
2023/10/30 01:14:18;;;;;;;4.47;3.38;;;;;;;10.36;100.00;94832.53;5090842;28;20039;-65
2023/10/30 01:16:43;;;;;;;6.78;4.00;;;;;;;10.35;100.00;94825.63;5063446;28;20448;-64
2023/10/30 01:19:09;;;;;;;6.65;3.42;;;;;;;10.38;100.00;94827.94;5076289;28;20119;-67
2023/10/30 01:21:35;;;;;;;8.90;3.55;;;;;;;10.31;100.00;94827.78;5082980;28;20024;-65
2023/10/30 01:24:00;;;;;;;4.93;3.58;;;;;;;10.26;100.00;94822.16;5087850;28;20012;-65
2023/10/30 01:26:26;;;;;;;5.63;3.53;;;;;;;10.25;100.00;94809.19;5093001;28;20048;-65
2023/10/30 01:28:51;;;;;;;4.90;3.35;;;;;;;10.19;100.00;94808.00;5079524;28;20027;-64
2023/10/30 01:31:16;;;;;;;6.53;3.55;;;;;;;10.20;100.00;94788.63;5080567;28;20023;-64
2023/10/30 01:33:42;;;;;;;4.07;3.20;;;;;;;10.15;100.00;94798.81;5082000;28;20016;-65
2023/10/30 01:36:07;;;;;;;7.05;3.40;;;;;;;10.15;100.00;94796.97;5080482;28;20599;-67
2023/10/30 01:38:33;;;;;;;5.40;3.30;;;;;;;10.05;100.00;94785.78;5078228;28;20050;-65
2023/10/30 01:40:58;;;;;;;6.47;3.78;;;;;;;10.04;100.00;94787.59;5086783;28;20523;-65
2023/10/30 01:43:32;;;;;;;5.18;3.35;;;;;;;10.11;100.00;94786.97;5081233;28;20016;-64
2023/10/30 01:45:58;;;;;;;6.68;3.80;;;;;;;10.06;100.00;94774.28;5085040;28;20024;-65
2023/10/30 01:48:25;;;;;;;7.00;3.55;;;;;;;10.06;100.00;94782.19;5087314;28;20043;-65
2023/10/30 01:50:50;;;;;;;8.85;3.50;;;;;;;10.09;100.00;94776.59;5081534;28;20024;-65
2023/10/30 01:53:20;;;;;;;8.27;3.63;;;;;;;10.04;100.00;94792.03;5080868;28;20024;-65
2023/10/30 01:55:47;;;;;;;5.03;3.30;;;;;;;9.99;100.00;94776.72;5089544;28;20095;-65
2023/10/30 01:58:12;;;;;;;5.82;3.83;;;;;;;9.95;100.00;94779.88;5080375;28;20038;-65
2023/10/30 02:00:38;;;;;;;8.15;3.50;;;;;;;9.87;100.00;94780.66;5086518;28;20465;-65
2023/10/30 02:03:04;;;;;;;3.80;3.30;;;;;;;9.86;100.00;94768.50;5092946;28;20031;-65
2023/10/30 02:05:29;;;;;;;8.25;3.50;;;;;;;9.80;100.00;94769.13;5088309;28;20024;-65
2023/10/30 02:07:55;;;;;;;4.78;3.38;;;;;;;9.78;100.00;94768.47;5080599;28;20066;-64
2023/10/30 02:10:21;;;;;;;9.10;3.67;;;;;;;9.78;100.00;94760.56;5064387;28;20045;-65
2023/10/30 02:12:50;;;;;;;6.65;3.22;;;;;;;9.83;100.00;94759.13;5064779;28;20417;-65
2023/10/30 02:15:16;;;;;;;5.25;3.30;;;;;;;9.79;100.00;94759.59;5066745;28;20481;-65
2023/10/30 02:17:42;;;;;;;5.43;3.17;;;;;;;9.77;100.00;94758.94;5062145;28;20028;-65
2023/10/30 02:20:08;;;;;;;5.53;3.83;;;;;;;9.75;100.00;94754.66;5073174;28;20443;-65
2023/10/30 02:22:33;;;;;;;5.55;3.28;;;;;;;9.69;100.00;94750.03;5072311;28;20036;-64
2023/10/30 02:24:59;;;;;;;5.20;3.25;;;;;;;9.62;100.00;94740.31;5061972;28;20082;-65
2023/10/30 02:27:24;;;;;;;4.60;3.35;;;;;;;9.61;100.00;94728.97;5055871;28;20029;-65
2023/10/30 02:29:49;;;;;;;6.55;3.28;;;;;;;9.61;100.00;94728.97;5051126;28;20111;-66
2023/10/30 02:32:15;;;;;;;6.18;3.28;;;;;;;9.62;100.00;94727.19;5063271;28;20044;-65
2023/10/30 02:34:41;;;;;;;7.13;3.40;;;;;;;9.65;100.00;94714.56;5068436;28;20450;-66
2023/10/30 02:37:06;;;;;;;6.57;3.17;;;;;;;9.65;100.00;94705.84;5068774;28;20056;-65
2023/10/30 02:39:33;;;;;;;5.13;3.38;;;;;;;9.66;100.00;94696.97;5061008;28;20463;-66
2023/10/30 02:42:01;;;;;;;4.85;3.47;;;;;;;9.54;100.00;94699.91;5066176;28;20029;-65
2023/10/30 02:44:28;;;;;;;9.05;3.25;;;;;;;9.54;100.00;94706.97;5065403;28;20029;-65
2023/10/30 02:46:54;;;;;;;5.70;3.33;;;;;;;9.52;100.00;94701.88;5058120;28;20393;-65
2023/10/30 02:49:19;;;;;;;3.85;3.33;;;;;;;9.52;100.00;94698.41;5063169;28;20031;-65
2023/10/30 02:51:45;;;;;;;4.97;2.97;;;;;;;9.50;100.00;94703.81;5064728;28;20040;-65
2023/10/30 02:54:10;;;;;;;5.40;2.95;;;;;;;9.50;100.00;94693.31;5065529;28;20928;-65
2023/10/30 02:56:35;;;;;;;4.18;3.60;;;;;;;9.52;100.00;94701.88;5060392;28;20427;-65
2023/10/30 02:59:01;;;;;;;4.45;3.75;;;;;;;9.52;100.00;94701.03;5059543;28;20076;-65
2023/10/30 03:01:26;;;;;;;4.85;3.75;;;;;;;9.50;100.00;94708.25;5060521;28;20061;-65
2023/10/30 03:03:52;;;;;;;5.95;3.67;;;;;;;9.42;100.00;94696.75;5055984;28;20471;-65
2023/10/30 03:06:17;;;;;;;4.60;4.20;;;;;;;9.41;100.00;94716.13;5061971;28;20029;-65
2023/10/30 03:08:43;;;;;;;8.52;3.92;;;;;;;9.42;100.00;94716.94;5067763;28;20053;-65
2023/10/30 03:11:08;;;;;;;6.93;3.80;;;;;;;9.37;100.00;94711.34;5088914;28;20024;-65
2023/10/30 03:13:33;;;;;;;6.55;3.53;;;;;;;9.52;100.00;94716.81;5076744;28;20392;-65
2023/10/30 03:15:59;;;;;;;4.53;3.03;;;;;;;9.48;100.00;94705.78;5084986;28;20381;-65
2023/10/30 03:18:24;;;;;;;4.30;3.40;;;;;;;9.47;100.00;94714.66;5079198;28;20028;-65
2023/10/30 03:20:50;;;;;;;5.00;3.42;;;;;;;9.49;100.00;94706.63;5088932;28;20024;-65
2023/10/30 03:23:15;;;;;;;7.50;4.97;;;;;;;9.48;100.00;94700.53;5091495;28;20034;-65
2023/10/30 03:25:42;;;;;;;8.25;5.28;;;;;;;9.46;100.00;94687.56;5084718;28;20071;-65
2023/10/30 03:28:07;;;;;;;3.72;3.35;;;;;;;9.39;100.00;94689.16;5079636;28;20036;-65
2023/10/30 03:30:36;;;;;;;4.03;3.30;;;;;;;9.35;100.00;94695.72;5081487;28;20067;-65
2023/10/30 03:33:05;;;;;;;9.90;4.05;;;;;;;9.28;100.00;94690.31;5078437;28;20107;-65
2023/10/30 03:35:36;;;;;;;6.00;3.40;;;;;;;9.22;100.00;94695.38;5087362;28;20491;-65
2023/10/30 03:38:01;;;;;;;7.28;3.53;;;;;;;9.20;100.00;94686.81;5087132;28;20070;-65
2023/10/30 03:40:26;;;;;;;7.68;3.72;;;;;;;9.19;100.00;94695.69;5077225;28;20028;-65
2023/10/30 03:42:52;;;;;;;5.10;3.47;;;;;;;9.14;100.00;94690.91;5073866;28;20561;-65
2023/10/30 03:45:18;;;;;;;8.23;3.60;;;;;;;9.12;100.00;94691.03;5085844;28;20028;-65
2023/10/30 03:47:43;;;;;;;5.85;3.30;;;;;;;9.10;100.00;94686.94;5068974;28;20081;-65
2023/10/30 03:50:10;;;;;;;5.40;3.33;;;;;;;9.00;100.00;94687.06;5084622;28;20110;-65
2023/10/30 03:52:35;;;;;;;6.03;3.03;;;;;;;8.92;100.00;94689.63;5073213;28;20028;-65
2023/10/30 03:55:03;;;;;;;6.35;3.38;;;;;;;8.93;100.00;94701.78;5074573;28;20028;-65
2023/10/30 03:57:32;;;;;;;3.63;3.20;;;;;;;8.99;100.00;94695.94;5083813;28;20020;-65
2023/10/30 03:59:57;;;;;;;5.10;3.30;;;;;;;8.91;100.00;94709.81;5078449;28;20039;-64
2023/10/30 04:02:23;;;;;;;5.93;3.38;;;;;;;8.86;100.00;94712.91;5088573;28;20122;-65
2023/10/30 04:04:48;;;;;;;7.30;3.92;;;;;;;8.91;100.00;94711.63;5087521;28;20046;-65
2023/10/30 04:07:14;;;;;;;5.13;3.45;;;;;;;8.86;100.00;94712.91;5085261;28;20061;-65
2023/10/30 04:09:39;;;;;;;5.93;3.33;;;;;;;8.89;100.00;94717.84;5084001;28;20455;-65
2023/10/30 04:12:05;;;;;;;6.18;3.35;;;;;;;8.85;100.00;94720.94;5092585;28;20031;-65
2023/10/30 04:14:31;;;;;;;5.38;3.63;;;;;;;8.82;100.00;94727.31;5074803;28;20025;-65
2023/10/30 04:17:02;;;;;;;6.03;3.47;;;;;;;8.81;100.00;94730.94;5074344;28;20401;-65
2023/10/30 04:19:27;;;;;;;4.28;3.33;;;;;;;8.78;100.00;94728.63;5075610;28;20035;-65
2023/10/30 04:21:52;;;;;;;3.95;3.17;;;;;;;8.74;100.00;94735.16;5088055;28;20020;-65
2023/10/30 04:24:18;;;;;;;4.25;3.10;;;;;;;8.72;100.00;94732.66;5083131;28;20032;-65
2023/10/30 04:26:43;;;;;;;8.98;3.72;;;;;;;8.69;100.00;94732.97;5075329;28;20107;-65
2023/10/30 04:29:09;;;;;;;3.70;2.90;;;;;;;8.75;100.00;94718.44;5085658;28;20509;-65
2023/10/30 04:31:34;;;;;;;4.93;3.13;;;;;;;8.73;100.00;94712.50;5089635;28;20104;-65
2023/10/30 04:33:59;;;;;;;7.68;3.05;;;;;;;8.76;100.00;94706.97;5075180;28;20054;-65
2023/10/30 04:36:25;;;;;;;5.70;2.92;;;;;;;8.84;100.00;94707.00;5073158;28;20016;-65
2023/10/30 04:38:50;;;;;;;6.90;4.30;;;;;;;8.82;100.00;94689.75;5074531;28;20025;-65
2023/10/30 04:41:16;;;;;;;5.57;3.80;;;;;;;8.82;100.00;94684.50;5079543;28;20077;-65
2023/10/30 04:43:41;;;;;;;8.00;3.72;;;;;;;8.78;100.00;94683.16;5083162;28;20019;-65
2023/10/30 04:46:07;;;;;;;5.90;3.17;;;;;;;8.76;100.00;94680.72;5078676;28;20024;-65
2023/10/30 04:48:32;;;;;;;4.70;3.30;;;;;;;8.74;100.00;94677.41;5085867;28;20072;-65
2023/10/30 04:50:59;;;;;;;4.32;3.00;;;;;;;8.70;100.00;94692.66;5090320;28;20103;-65
2023/10/30 04:53:24;;;;;;;4.93;2.90;;;;;;;8.69;100.00;94687.53;5091635;28;20066;-65
2023/10/30 04:55:50;;;;;;;6.40;4.22;;;;;;;8.67;100.00;94679.84;5090367;28;20066;-65
2023/10/30 04:58:16;;;;;;;8.95;4.60;;;;;;;8.60;100.00;94677.00;5074682;28;20032;-65
2023/10/30 05:00:42;;;;;;;12.00;5.72;;;;;;;8.59;100.00;94677.16;5086344;28;20052;-65
2023/10/30 05:03:09;;;;;;;6.97;3.83;;;;;;;8.56;100.00;94678.28;5079540;28;20032;-65
2023/10/30 05:05:36;;;;;;;5.35;3.95;;;;;;;8.56;100.00;94686.16;5076387;28;20032;-65
2023/10/30 05:08:02;;;;;;;7.00;4.82;;;;;;;8.55;100.00;94694.19;5073812;28;20503;-65
2023/10/30 05:10:27;;;;;;;6.90;4.72;;;;;;;8.55;100.00;94689.78;5089059;28;20024;-65
2023/10/30 05:12:53;;;;;;;8.00;5.55;;;;;;;8.52;100.00;94684.84;5086763;28;20030;-65
2023/10/30 05:15:18;;;;;;;5.50;4.20;;;;;;;8.53;100.00;94699.59;5081808;28;20050;-65
2023/10/30 05:17:44;;;;;;;5.15;4.30;;;;;;;8.53;100.00;94689.09;5078045;28;20051;-65
2023/10/30 05:20:10;;;;;;;4.13;3.78;;;;;;;8.49;100.00;94682.47;5091668;28;20020;-65
2023/10/30 05:22:35;;;;;;;8.68;4.57;;;;;;;8.45;100.00;94683.75;5099249;28;20057;-65
2023/10/30 05:25:04;;;;;;;6.40;4.60;;;;;;;8.42;100.00;94684.06;5094002;28;20030;-65
2023/10/30 05:27:30;;;;;;;5.82;4.30;;;;;;;8.42;100.00;94689.31;5084751;28;20051;-65
2023/10/30 05:29:56;;;;;;;10.48;4.47;;;;;;;8.35;100.00;94688.28;5081879;28;20020;-65
2023/10/30 05:32:21;;;;;;;6.40;4.35;;;;;;;8.35;100.00;94686.47;5086544;28;20030;-65
2023/10/30 05:34:48;;;;;;;9.10;5.18;;;;;;;8.38;100.00;94686.16;5094272;28;20032;-65
2023/10/30 05:37:13;;;;;;;7.05;4.07;;;;;;;8.38;100.00;94685.34;5087916;28;20073;-65
2023/10/30 05:39:39;;;;;;;7.55;4.15;;;;;;;8.38;100.00;94688.78;5093741;28;20091;-65
2023/10/30 05:42:05;;;;;;;6.25;4.05;;;;;;;8.37;100.00;94681.09;5078518;28;20115;-65
2023/10/30 05:44:31;;;;;;;4.55;3.75;;;;;;;8.37;100.00;94687.13;5075839;28;20135;-65
2023/10/30 05:47:00;;;;;;;5.75;3.30;;;;;;;8.42;100.00;94679.66;5085665;28;20058;-65
2023/10/30 05:49:28;;;;;;;7.55;4.10;;;;;;;8.38;100.00;94672.25;5081061;28;20032;-65
2023/10/30 05:51:55;;;;;;;6.20;3.95;;;;;;;8.39;100.00;94677.31;5086878;28;20024;-65
2023/10/30 05:54:21;;;;;;;5.70;4.85;;;;;;;8.39;100.00;94668.63;5090627;28;20020;-65
2023/10/30 05:56:47;;;;;;;7.38;3.85;;;;;;;8.42;100.00;94673.56;5077433;28;20028;-64
2023/10/30 05:59:12;;;;;;;6.80;3.58;;;;;;;8.45;100.00;94657.53;5095553;28;20026;-65
2023/10/30 06:01:37;;;;;;;6.18;3.70;;;;;;;8.49;100.00;94671.16;5094244;28;20025;-65
2023/10/30 06:04:04;;;;;;;7.30;4.00;;;;;;;8.53;100.00;94676.00;5075624;28;20059;-65
2023/10/30 06:06:29;;;;;;;6.63;4.47;;;;;;;8.53;100.00;94669.91;5078547;28;20084;-65
2023/10/30 06:08:54;;;;;;;7.22;3.65;;;;;;;8.53;100.00;94668.13;5090767;28;20575;-65
2023/10/30 06:11:20;;;;;;;9.98;4.20;;;;;;;8.54;100.00;94664.50;5095728;28;20032;-65
2023/10/30 06:13:46;;;;;;;3.78;3.38;;;;;;;8.55;100.00;94663.53;5092586;28;20020;-65
2023/10/30 06:16:15;;;;;;;12.23;9.45;;;;;;;8.60;100.00;94661.25;5075003;28;20025;-65
2023/10/30 06:18:41;;;;;;;8.75;8.05;;;;;;;8.70;100.00;94647.19;5082787;28;20467;-65
2023/10/30 06:21:07;;;;;;;12.32;9.68;;;;;;;8.74;100.00;94656.44;5081731;28;20102;-65
2023/10/30 06:23:34;;;;;;;13.32;8.60;;;;;;;8.78;100.00;94643.78;5081899;28;20035;-65
2023/10/30 06:25:59;;;;;;;13.50;9.88;;;;;;;8.82;100.00;94632.00;5085298;28;20017;-65
2023/10/30 06:28:25;;;;;;;15.35;12.25;;;;;;;8.84;100.00;94633.50;5089718;28;20032;-65
2023/10/30 06:30:50;;;;;;;16.95;12.02;;;;;;;8.86;100.00;94638.59;5083980;28;20028;-65
2023/10/30 06:33:15;;;;;;;11.90;10.70;;;;;;;8.91;100.00;94632.88;5080620;28;20032;-65
2023/10/30 06:35:41;;;;;;;14.07;10.43;;;;;;;8.94;100.00;94643.03;5080428;28;20020;-65
2023/10/30 06:38:06;;;;;;;14.75;11.68;;;;;;;8.98;100.00;94632.06;5082087;28;20111;-64
2023/10/30 06:40:32;;;;;;;9.98;8.50;;;;;;;9.04;100.00;94625.38;5093682;28;20051;-64
2023/10/30 06:42:57;;;;;;;12.23;11.02;;;;;;;9.06;100.00;94618.16;5090642;28;20077;-65
2023/10/30 06:45:22;;;;;;;11.52;10.40;;;;;;;9.10;100.00;94618.69;5076698;28;20024;-64
2023/10/30 06:47:48;;;;;;;11.68;8.82;;;;;;;9.14;100.00;94612.94;5078966;28;20089;-66
2023/10/30 06:50:13;;;;;;;10.88;9.30;;;;;;;9.18;100.00;94605.56;5085597;28;20550;-65
2023/10/30 06:52:39;;;;;;;12.07;9.18;;;;;;;9.17;100.00;94599.50;5091165;28;20549;-65
2023/10/30 06:55:05;;;;;;;12.00;9.10;;;;;;;9.20;100.00;94595.72;5084944;28;20390;-65
2023/10/30 06:57:30;;;;;;;11.13;9.90;;;;;;;9.20;100.00;94587.84;5091921;28;20019;-65
2023/10/30 06:59:57;;;;;;;12.32;11.07;;;;;;;9.24;100.00;94588.34;5085077;28;20511;-65
2023/10/30 07:02:22;;;;;;;14.02;10.20;;;;;;;9.27;100.00;94588.84;5091900;28;20024;-64
2023/10/30 07:04:48;;;;;;;16.85;11.25;;;;;;;9.30;100.00;94595.56;5075625;28;20013;-65
2023/10/30 07:07:13;;;;;;;19.75;11.93;;;;;;;9.29;100.00;94581.63;5080436;28;20028;-65
2023/10/30 07:09:40;;;;;;;16.27;12.88;;;;;;;9.30;100.00;94583.28;5093347;28;20105;-65
2023/10/30 07:12:05;;;;;;;16.13;13.85;;;;;;;9.31;100.00;94578.84;5081899;28;20115;-65
2023/10/30 07:14:32;;;;;;;19.95;13.55;;;;;;;9.35;100.00;94580.16;5095733;28;20036;-65
2023/10/30 07:16:58;;;;;;;14.18;12.70;;;;;;;9.41;100.00;94590.03;5091374;28;20024;-65
2023/10/30 07:19:23;;;;;;;18.27;11.35;;;;;;;9.44;100.00;94583.63;5084731;28;20024;-65
2023/10/30 07:21:48;;;;;;;13.23;10.13;;;;;;;9.51;100.00;94586.41;5091648;28;20490;-65
2023/10/30 07:24:14;;;;;;;10.02;9.02;;;;;;;9.51;100.00;94592.50;5084854;28;20050;-65
2023/10/30 07:26:39;;;;;;;13.88;8.02;;;;;;;9.54;100.00;94599.22;5061323;28;20012;-65
2023/10/30 07:29:05;;;;;;;18.00;7.88;;;;;;;9.57;100.00;94602.38;5083673;28;20072;-65
2023/10/30 07:31:30;;;;;;;10.05;7.03;;;;;;;9.61;100.00;94600.22;5093044;28;20020;-64
2023/10/30 07:33:57;;;;;;;13.70;6.15;;;;;;;9.68;100.00;94606.47;5084051;28;20477;-65
2023/10/30 07:36:22;;;;;;;11.07;6.22;;;;;;;9.74;100.00;94611.06;5092194;28;20023;-65
2023/10/30 07:38:48;;;;;;;10.88;6.45;;;;;;;9.80;100.00;94600.88;5084357;28;20016;-65
2023/10/30 07:41:13;;;;;;;8.18;5.15;;;;;;;9.94;100.00;94589.72;5080666;28;20047;-65
2023/10/30 07:43:39;;;;;;;6.57;4.53;;;;;;;10.08;100.00;94584.78;5075459;28;20408;-65
2023/10/30 07:46:04;;;;;;;3.60;3.30;;;;;;;10.15;100.00;94593.66;5075316;28;20043;-65
2023/10/30 07:48:30;;;;;;;6.70;3.20;;;;;;;10.22;100.00;94596.44;5075381;28;20032;-65
2023/10/30 07:51:00;;;;;;;4.88;3.40;;;;;;;10.27;100.00;94591.50;5074825;28;20598;-65
2023/10/30 07:53:26;;;;;;;5.47;3.75;;;;;;;10.33;100.00;94569.78;5074660;28;20024;-65
2023/10/30 07:55:51;;;;;;;4.13;3.75;;;;;;;10.35;100.00;94585.41;5077377;28;20385;-65
2023/10/30 07:58:16;;;;;;;6.45;4.30;;;;;;;10.38;100.00;94587.69;5087329;28;20013;-65
2023/10/30 08:00:42;;;;;;;6.93;3.33;;;;;;;10.45;100.00;94580.78;5076549;28;20101;-65
2023/10/30 08:03:07;;;;;;;6.18;3.47;;;;;;;10.55;100.00;94585.88;5087064;28;20050;-65
2023/10/30 08:05:33;;;;;;;4.18;3.47;;;;;;;10.65;100.00;94585.69;5074347;28;20115;-65
2023/10/30 08:07:58;;;;;;;4.55;3.30;;;;;;;10.68;100.00;94570.38;5074988;28;20012;-64
2023/10/30 08:10:24;;;;;;;4.22;3.42;;;;;;;10.78;100.00;94578.06;5078665;28;20029;-65
2023/10/30 08:12:51;;;;;;;5.60;2.88;;;;;;;10.82;100.00;94560.09;5086829;28;20025;-65
2023/10/30 08:15:16;;;;;;;5.28;3.35;;;;;;;10.95;100.00;94570.13;5077307;28;20021;-65
2023/10/30 08:17:41;;;;;;;6.43;3.90;;;;;;;11.01;100.00;94566.78;5074742;28;20026;-65
2023/10/30 08:20:09;;;;;;;5.80;3.47;;;;;;;11.04;100.00;94584.88;5074334;28;20026;-65
2023/10/30 08:22:35;;;;;;;3.45;3.13;;;;;;;11.03;100.00;94588.50;5094592;28;20024;-65
2023/10/30 08:25:01;;;;;;;8.10;3.72;;;;;;;11.20;100.00;94602.41;5081018;28;20080;-65
2023/10/30 08:27:26;;;;;;;6.40;3.50;;;;;;;11.15;100.00;94605.56;5084565;28;20048;-65
2023/10/30 08:29:52;;;;;;;6.70;4.57;;;;;;;11.23;100.00;94601.25;5087499;28;20380;-65
2023/10/30 08:32:18;;;;;;;15.35;12.70;;;;;;;11.27;100.00;94599.91;5075988;28;20035;-65
2023/10/30 08:34:44;;;;;;;13.98;12.43;;;;;;;11.34;100.00;94598.22;5089455;28;20032;-65
2023/10/30 08:37:10;;;;;;;7.88;7.07;;;;;;;11.39;100.00;94595.06;5084786;28;20020;-65
2023/10/30 08:39:35;;;;;;;14.98;8.48;;;;;;;11.34;100.00;94606.13;5074590;28;20020;-65
2023/10/30 08:42:01;;;;;;;8.85;6.60;;;;;;;11.26;100.00;94635.16;5084195;28;20020;-64
2023/10/30 08:44:27;;;;;;;9.98;5.60;;;;;;;11.20;100.00;94654.28;5089166;28;20028;-64
2023/10/30 08:46:53;;;;;;;7.88;4.55;;;;;;;11.15;100.00;94642.44;5076415;28;20024;-64
2023/10/30 08:49:19;;;;;;;6.40;3.95;;;;;;;11.13;100.00;94606.72;5090131;28;20024;-64
2023/10/30 08:51:45;;;;;;;7.05;4.18;;;;;;;11.08;100.00;94628.31;5077889;28;20027;-64
2023/10/30 08:54:10;;;;;;;10.23;4.90;;;;;;;11.07;100.00;94636.41;5078852;28;20029;-64
2023/10/30 08:56:39;;;;;;;6.05;4.97;;;;;;;11.06;100.00;94651.38;5078326;28;20137;-64
2023/10/30 08:59:05;;;;;;;5.25;4.43;;;;;;;11.05;100.00;94655.00;5093759;28;20030;-63
2023/10/30 09:01:34;;;;;;;6.05;4.30;;;;;;;11.07;100.00;94658.28;5088020;28;20048;-65
2023/10/30 09:03:59;;;;;;;6.18;4.90;;;;;;;11.01;100.00;94674.75;5083299;28;20016;-64
2023/10/30 09:06:26;;;;;;;8.15;4.82;;;;;;;11.02;100.00;94686.94;5077710;28;20028;-63
2023/10/30 09:08:52;;;;;;;8.77;4.95;;;;;;;11.01;100.00;94703.75;5080581;28;20416;-63
2023/10/30 09:11:18;;;;;;;7.75;4.55;;;;;;;11.10;100.00;94734.31;5076446;28;20115;-64
2023/10/30 09:13:43;;;;;;;5.95;4.20;;;;;;;11.17;100.00;94752.91;5079691;28;20035;-64
2023/10/30 09:16:08;;;;;;;5.65;4.40;;;;;;;11.13;100.00;94744.50;5097946;28;20048;-64
2023/10/30 09:18:35;;;;;;;6.82;4.53;;;;;;;11.26;100.00;94701.81;5094081;28;20393;-63
2023/10/30 09:21:00;;;;;;;6.35;4.90;;;;;;;11.44;100.00;94698.97;5085673;28;20071;-64
2023/10/30 09:23:26;;;;;;;7.72;5.35;;;;;;;11.51;100.00;94708.81;5087682;28;20024;-63
2023/10/30 09:25:51;;;;;;;7.25;4.95;;;;;;;11.44;100.00;94706.88;5094022;28;20054;-64
2023/10/30 09:28:17;;;;;;;6.15;3.95;;;;;;;11.53;100.00;94694.50;5094252;28;20119;-64
2023/10/30 09:30:43;;;;;;;7.85;4.20;;;;;;;11.58;100.00;94680.78;5091184;28;20032;-64
2023/10/30 09:33:08;;;;;;;5.13;4.35;;;;;;;11.66;100.00;94686.03;5084189;28;20088;-64
2023/10/30 09:35:34;;;;;;;6.80;4.60;;;;;;;11.75;100.00;94674.41;5086934;28;20115;-64
2023/10/30 09:38:00;;;;;;;8.27;4.35;;;;;;;11.89;100.00;94674.66;5083699;28;20025;-64
2023/10/30 09:40:26;;;;;;;5.45;3.55;;;;;;;12.03;100.00;94676.56;5082787;28;20399;-63
2023/10/30 09:42:52;;;;;;;3.60;2.90;;;;;;;12.22;100.00;94665.72;5086582;28;20046;-64
2023/10/30 09:45:23;;;;;;;3.40;2.28;;;;;;;12.28;100.00;94650.00;5078048;28;20046;-64
2023/10/30 09:47:53;;;;;;;4.45;2.55;;;;;;;12.38;100.00;94654.22;5080981;28;20036;-64
2023/10/30 09:50:19;;;;;;;2.60;2.40;;;;;;;12.47;100.00;94658.41;5088272;28;20024;-64
2023/10/30 09:52:50;;;;;;;2.92;2.58;;;;;;;12.66;100.00;94650.97;5082160;28;20157;-64
2023/10/30 09:55:21;;;;;;;5.00;3.20;;;;;;;12.64;100.00;94629.22;5087308;28;20020;-64
2023/10/30 09:57:51;;;;;;;5.22;2.80;;;;;;;12.61;100.00;94623.28;5088637;28;20027;-63
2023/10/30 10:00:17;;;;;;;3.90;3.10;;;;;;;12.63;100.00;94617.84;5080583;28;20066;-64
2023/10/30 10:02:43;;;;;;;4.70;3.53;;;;;;;12.59;100.00;94612.09;5097041;28;20060;-64
2023/10/30 10:05:10;;;;;;;3.55;3.08;;;;;;;12.60;100.00;94605.00;5086069;28;20016;-64
2023/10/30 10:07:36;;;;;;;6.18;4.15;;;;;;;12.71;100.00;94585.22;5078969;28;20572;-64
2023/10/30 10:10:03;;;;;;;4.05;3.75;;;;;;;12.73;100.00;94577.97;5077786;28;20044;-64
2023/10/30 10:12:30;;;;;;;4.35;3.90;;;;;;;12.71;100.00;94550.91;5080840;28;20120;-64
2023/10/30 10:14:56;;;;;;;5.68;4.85;;;;;;;12.89;100.00;94550.53;5083222;28;20055;-64
2023/10/30 10:17:22;;;;;;;4.90;3.90;;;;;;;12.74;100.00;94559.28;5076911;28;20457;-64
2023/10/30 10:19:48;;;;;;;8.27;3.53;;;;;;;12.69;100.00;94566.09;5076885;28;20476;-64
2023/10/30 10:22:26;;;;;;;7.45;3.38;;;;;;;12.64;100.00;94568.47;5093299;28;20108;-64
2023/10/30 10:24:52;;;;;;;3.78;2.70;;;;;;;12.63;100.00;94572.13;5094694;28;20040;-64
2023/10/30 10:27:19;;;;;;;2.70;2.40;;;;;;;12.67;100.00;94568.13;5087748;28;20020;-65
2023/10/30 10:29:51;;;;;;;3.13;2.78;;;;;;;12.73;100.00;94552.38;5086819;28;20020;-64
2023/10/30 10:32:16;;;;;;;3.65;3.35;;;;;;;12.83;100.00;94560.00;5074233;28;20056;-64
2023/10/30 10:34:42;;;;;;;3.90;3.28;;;;;;;12.87;100.00;94547.25;5087443;28;20060;-64
2023/10/30 10:37:17;;;;;;;4.63;3.47;;;;;;;12.96;100.00;94532.13;5079719;28;20035;-64
2023/10/30 10:39:53;;;;;;;4.07;3.63;;;;;;;13.00;100.00;94517.53;5081119;28;20024;-65
2023/10/30 10:42:20;;;;;;;5.80;3.80;;;;;;;12.99;100.00;94521.19;5084656;28;20032;-64
2023/10/30 10:44:48;;;;;;;4.88;3.22;;;;;;;12.99;100.00;94523.84;5079018;28;20073;-64
2023/10/30 10:47:13;;;;;;;6.15;3.85;;;;;;;12.99;100.00;94531.75;5083378;28;20020;-63
2023/10/30 10:49:39;;;;;;;4.15;3.20;;;;;;;12.97;100.00;94531.13;5055419;28;20024;-64
2023/10/30 10:52:08;;;;;;;5.30;3.78;;;;;;;12.98;100.00;94543.34;5075862;28;20024;-63
2023/10/30 10:54:43;;;;;;;8.02;3.75;;;;;;;13.00;100.00;94525.47;5091361;28;21457;-65
2023/10/30 10:57:14;;;;;;;5.00;3.97;;;;;;;13.10;100.00;94527.81;5083561;28;20032;-63
2023/10/30 10:59:44;;;;;;;5.75;3.90;;;;;;;13.21;100.00;94515.94;5080376;28;20020;-63
2023/10/30 11:02:16;;;;;;;6.95;4.72;;;;;;;13.26;100.00;94516.19;5089009;28;20552;-64
2023/10/30 11:04:42;;;;;;;5.15;4.65;;;;;;;13.29;100.00;94529.03;5095242;28;20017;-64
2023/10/30 11:07:12;;;;;;;5.85;4.00;;;;;;;13.42;100.00;94513.31;5091115;28;20031;-64
2023/10/30 11:09:49;;;;;;;7.90;4.20;;;;;;;13.47;100.00;94499.53;5090926;28;20044;-63
2023/10/30 11:12:53;;;;;;;4.13;3.72;;;;;;;13.34;100.00;94479.06;5087198;28;20032;-63
2023/10/30 11:15:30;;;;;;;6.50;3.70;;;;;;;13.24;100.00;94478.56;5075436;28;20099;-64
2023/10/30 11:18:15;;;;;;;3.90;3.60;;;;;;;13.13;100.00;94493.91;5075647;28;20024;-63
2023/10/30 11:20:42;;;;;;;4.43;3.50;;;;;;;13.08;100.00;94493.66;5077827;28;20013;-64
2023/10/30 11:23:09;;;;;;;7.07;3.42;;;;;;;13.09;100.00;94494.47;5090771;28;20031;-63